sensor_id;sensor_type;location;lat;lon;timestamp;temperature;humidity
26408;DHT22;14583;43.604;1.364;2023-09-07T00:01:23;23.50;73.60
26408;DHT22;14583;43.604;1.364;2023-09-07T00:03:49;23.50;73.50
26408;DHT22;14583;43.604;1.364;2023-09-07T00:06:15;23.40;72.80
26408;DHT22;14583;43.604;1.364;2023-09-07T00:08:40;23.30;73.40
26408;DHT22;14583;43.604;1.364;2023-09-07T00:11:06;23.20;73.30
26408;DHT22;14583;43.604;1.364;2023-09-07T00:13:33;23.30;73.60
26408;DHT22;14583;43.604;1.364;2023-09-07T00:16:03;23.30;73.40
26408;DHT22;14583;43.604;1.364;2023-09-07T00:18:30;23.30;74.70
26408;DHT22;14583;43.604;1.364;2023-09-07T00:20:55;23.30;73.60
26408;DHT22;14583;43.604;1.364;2023-09-07T00:23:21;23.20;73.80
26408;DHT22;14583;43.604;1.364;2023-09-07T00:25:47;23.10;73.70
26408;DHT22;14583;43.604;1.364;2023-09-07T00:28:13;23.10;73.80
26408;DHT22;14583;43.604;1.364;2023-09-07T00:30:39;23.00;74.40
26408;DHT22;14583;43.604;1.364;2023-09-07T00:33:04;23.00;74.10
26408;DHT22;14583;43.604;1.364;2023-09-07T00:35:30;23.00;74.10
26408;DHT22;14583;43.604;1.364;2023-09-07T00:37:56;23.00;74.90
26408;DHT22;14583;43.604;1.364;2023-09-07T00:40:22;23.00;74.90
26408;DHT22;14583;43.604;1.364;2023-09-07T00:42:48;23.00;75.70
26408;DHT22;14583;43.604;1.364;2023-09-07T00:45:14;23.00;74.60
26408;DHT22;14583;43.604;1.364;2023-09-07T00:47:40;23.00;75.50
26408;DHT22;14583;43.604;1.364;2023-09-07T00:50:07;23.00;74.90
26408;DHT22;14583;43.604;1.364;2023-09-07T00:52:33;23.00;75.50
26408;DHT22;14583;43.604;1.364;2023-09-07T00:55:01;22.90;75.80
26408;DHT22;14583;43.604;1.364;2023-09-07T00:57:27;22.90;75.50
26408;DHT22;14583;43.604;1.364;2023-09-07T00:59:54;22.90;75.30
26408;DHT22;14583;43.604;1.364;2023-09-07T01:02:19;22.90;75.10
26408;DHT22;14583;43.604;1.364;2023-09-07T01:04:45;22.90;75.60
26408;DHT22;14583;43.604;1.364;2023-09-07T01:09:58;23.00;75.40
26408;DHT22;14583;43.604;1.364;2023-09-07T01:12:25;23.00;75.30
26408;DHT22;14583;43.604;1.364;2023-09-07T01:14:50;23.00;74.40
26408;DHT22;14583;43.604;1.364;2023-09-07T01:17:16;23.00;75.20
26408;DHT22;14583;43.604;1.364;2023-09-07T01:19:42;22.90;75.30
26408;DHT22;14583;43.604;1.364;2023-09-07T01:22:09;22.80;74.40
26408;DHT22;14583;43.604;1.364;2023-09-07T01:24:37;22.80;75.90
26408;DHT22;14583;43.604;1.364;2023-09-07T01:27:05;22.80;75.90
26408;DHT22;14583;43.604;1.364;2023-09-07T01:29:31;22.80;76.00
26408;DHT22;14583;43.604;1.364;2023-09-07T01:31:57;22.70;75.50
26408;DHT22;14583;43.604;1.364;2023-09-07T01:34:23;22.60;76.20
26408;DHT22;14583;43.604;1.364;2023-09-07T01:36:50;22.60;76.60
26408;DHT22;14583;43.604;1.364;2023-09-07T01:39:15;22.60;76.60
26408;DHT22;14583;43.604;1.364;2023-09-07T01:41:42;22.70;76.50
26408;DHT22;14583;43.604;1.364;2023-09-07T01:44:08;22.70;76.70
26408;DHT22;14583;43.604;1.364;2023-09-07T01:46:34;22.60;76.10
26408;DHT22;14583;43.604;1.364;2023-09-07T01:49:01;22.60;76.50
26408;DHT22;14583;43.604;1.364;2023-09-07T01:51:27;22.50;76.10
26408;DHT22;14583;43.604;1.364;2023-09-07T01:53:53;22.50;77.40
26408;DHT22;14583;43.604;1.364;2023-09-07T01:56:19;22.50;77.20
26408;DHT22;14583;43.604;1.364;2023-09-07T01:58:45;22.50;77.10
26408;DHT22;14583;43.604;1.364;2023-09-07T02:01:31;22.50;77.60
26408;DHT22;14583;43.604;1.364;2023-09-07T02:03:57;22.50;77.50
26408;DHT22;14583;43.604;1.364;2023-09-07T02:06:23;22.50;77.50
26408;DHT22;14583;43.604;1.364;2023-09-07T02:08:48;22.50;78.20
26408;DHT22;14583;43.604;1.364;2023-09-07T02:11:14;22.60;78.00
26408;DHT22;14583;43.604;1.364;2023-09-07T02:13:45;22.50;77.40
26408;DHT22;14583;43.604;1.364;2023-09-07T02:16:11;22.40;77.40
26408;DHT22;14583;43.604;1.364;2023-09-07T02:18:37;22.50;77.90
26408;DHT22;14583;43.604;1.364;2023-09-07T02:21:09;22.40;77.50
26408;DHT22;14583;43.604;1.364;2023-09-07T02:23:35;22.50;76.90
26408;DHT22;14583;43.604;1.364;2023-09-07T02:26:04;22.70;76.90
26408;DHT22;14583;43.604;1.364;2023-09-07T02:28:30;22.70;77.30
26408;DHT22;14583;43.604;1.364;2023-09-07T02:31:06;22.70;76.90
26408;DHT22;14583;43.604;1.364;2023-09-07T02:33:32;22.60;77.10
26408;DHT22;14583;43.604;1.364;2023-09-07T02:35:58;22.60;77.30
26408;DHT22;14583;43.604;1.364;2023-09-07T02:38:24;22.70;77.70
26408;DHT22;14583;43.604;1.364;2023-09-07T02:40:50;22.70;76.30
26408;DHT22;14583;43.604;1.364;2023-09-07T02:43:15;22.60;77.10
26408;DHT22;14583;43.604;1.364;2023-09-07T02:45:42;22.60;77.10
26408;DHT22;14583;43.604;1.364;2023-09-07T02:48:07;22.50;78.10
26408;DHT22;14583;43.604;1.364;2023-09-07T02:50:34;22.40;77.90
26408;DHT22;14583;43.604;1.364;2023-09-07T02:53:00;22.30;78.10
26408;DHT22;14583;43.604;1.364;2023-09-07T02:55:27;22.40;78.70
26408;DHT22;14583;43.604;1.364;2023-09-07T02:57:52;22.40;78.70
26408;DHT22;14583;43.604;1.364;2023-09-07T03:00:19;22.40;78.20
26408;DHT22;14583;43.604;1.364;2023-09-07T03:02:44;22.30;79.80
26408;DHT22;14583;43.604;1.364;2023-09-07T03:05:10;22.30;78.50
26408;DHT22;14583;43.604;1.364;2023-09-07T03:07:36;22.30;78.50
26408;DHT22;14583;43.604;1.364;2023-09-07T03:10:05;22.30;78.50
26408;DHT22;14583;43.604;1.364;2023-09-07T03:12:30;22.20;79.20
26408;DHT22;14583;43.604;1.364;2023-09-07T03:14:56;22.30;79.20
26408;DHT22;14583;43.604;1.364;2023-09-07T03:17:22;22.30;79.80
26408;DHT22;14583;43.604;1.364;2023-09-07T03:19:48;22.20;79.30
26408;DHT22;14583;43.604;1.364;2023-09-07T03:22:13;22.10;80.10
26408;DHT22;14583;43.604;1.364;2023-09-07T03:24:40;21.90;81.20
26408;DHT22;14583;43.604;1.364;2023-09-07T03:27:05;21.80;81.90
26408;DHT22;14583;43.604;1.364;2023-09-07T03:29:31;21.80;82.40
26408;DHT22;14583;43.604;1.364;2023-09-07T03:31:59;21.70;82.60
26408;DHT22;14583;43.604;1.364;2023-09-07T03:34:25;21.70;83.10
26408;DHT22;14583;43.604;1.364;2023-09-07T03:36:51;21.70;83.40
26408;DHT22;14583;43.604;1.364;2023-09-07T03:39:16;21.60;83.70
26408;DHT22;14583;43.604;1.364;2023-09-07T03:41:47;21.50;84.80
26408;DHT22;14583;43.604;1.364;2023-09-07T03:44:12;21.50;84.80
26408;DHT22;14583;43.604;1.364;2023-09-07T03:46:38;21.40;85.50
26408;DHT22;14583;43.604;1.364;2023-09-07T03:49:04;21.40;85.50
26408;DHT22;14583;43.604;1.364;2023-09-07T03:51:30;21.40;86.10
26408;DHT22;14583;43.604;1.364;2023-09-07T03:53:56;21.40;86.70
26408;DHT22;14583;43.604;1.364;2023-09-07T03:56:21;21.30;88.00
26408;DHT22;14583;43.604;1.364;2023-09-07T03:58:47;21.30;88.30
26408;DHT22;14583;43.604;1.364;2023-09-07T04:01:13;21.20;88.50
26408;DHT22;14583;43.604;1.364;2023-09-07T04:03:39;21.30;89.40
26408;DHT22;14583;43.604;1.364;2023-09-07T04:06:06;21.40;89.50
26408;DHT22;14583;43.604;1.364;2023-09-07T04:08:31;21.40;89.80
26408;DHT22;14583;43.604;1.364;2023-09-07T04:10:57;21.30;90.00
26408;DHT22;14583;43.604;1.364;2023-09-07T04:13:23;21.30;90.20
26408;DHT22;14583;43.604;1.364;2023-09-07T04:15:48;21.20;90.10
26408;DHT22;14583;43.604;1.364;2023-09-07T04:18:14;21.10;90.20
26408;DHT22;14583;43.604;1.364;2023-09-07T04:20:43;21.20;90.80
26408;DHT22;14583;43.604;1.364;2023-09-07T04:23:09;21.30;90.50
26408;DHT22;14583;43.604;1.364;2023-09-07T04:25:35;21.40;90.80
26408;DHT22;14583;43.604;1.364;2023-09-07T04:28:00;21.40;90.50
26408;DHT22;14583;43.604;1.364;2023-09-07T04:30:26;21.30;90.50
26408;DHT22;14583;43.604;1.364;2023-09-07T04:32:59;21.40;90.50
26408;DHT22;14583;43.604;1.364;2023-09-07T04:35:29;21.50;90.40
26408;DHT22;14583;43.604;1.364;2023-09-07T04:37:57;21.40;89.10
26408;DHT22;14583;43.604;1.364;2023-09-07T04:40:24;21.40;89.10
26408;DHT22;14583;43.604;1.364;2023-09-07T04:42:50;21.50;88.90
26408;DHT22;14583;43.604;1.364;2023-09-07T04:45:16;21.60;87.90
26408;DHT22;14583;43.604;1.364;2023-09-07T04:47:43;21.50;85.40
26408;DHT22;14583;43.604;1.364;2023-09-07T04:50:08;21.40;84.80
26408;DHT22;14583;43.604;1.364;2023-09-07T04:52:34;21.40;85.10
26408;DHT22;14583;43.604;1.364;2023-09-07T04:55:00;21.50;85.00
26408;DHT22;14583;43.604;1.364;2023-09-07T04:57:26;21.50;84.00
26408;DHT22;14583;43.604;1.364;2023-09-07T04:59:52;21.50;82.90
26408;DHT22;14583;43.604;1.364;2023-09-07T05:02:18;21.60;83.80
26408;DHT22;14583;43.604;1.364;2023-09-07T05:04:44;21.70;84.20
26408;DHT22;14583;43.604;1.364;2023-09-07T05:07:10;21.70;83.10
26408;DHT22;14583;43.604;1.364;2023-09-07T05:09:36;21.70;83.60
26408;DHT22;14583;43.604;1.364;2023-09-07T05:12:01;21.70;83.20
26408;DHT22;14583;43.604;1.364;2023-09-07T05:14:27;21.60;83.00
26408;DHT22;14583;43.604;1.364;2023-09-07T05:16:55;21.60;83.90
26408;DHT22;14583;43.604;1.364;2023-09-07T05:19:22;21.70;83.10
26408;DHT22;14583;43.604;1.364;2023-09-07T05:21:47;21.80;83.50
26408;DHT22;14583;43.604;1.364;2023-09-07T05:24:13;21.90;82.90
26408;DHT22;14583;43.604;1.364;2023-09-07T05:26:41;21.90;82.70
26408;DHT22;14583;43.604;1.364;2023-09-07T05:29:07;21.90;83.00
26408;DHT22;14583;43.604;1.364;2023-09-07T05:31:33;21.90;82.40
26408;DHT22;14583;43.604;1.364;2023-09-07T05:33:58;22.00;82.40
26408;DHT22;14583;43.604;1.364;2023-09-07T05:36:24;22.00;82.00
26408;DHT22;14583;43.604;1.364;2023-09-07T05:38:50;21.90;82.60
26408;DHT22;14583;43.604;1.364;2023-09-07T05:41:15;22.10;82.00
26408;DHT22;14583;43.604;1.364;2023-09-07T05:43:41;22.10;81.70
26408;DHT22;14583;43.604;1.364;2023-09-07T05:46:07;22.20;81.20
26408;DHT22;14583;43.604;1.364;2023-09-07T05:48:32;22.20;82.00
26408;DHT22;14583;43.604;1.364;2023-09-07T05:50:58;22.10;80.80
26408;DHT22;14583;43.604;1.364;2023-09-07T05:53:23;22.00;81.10
26408;DHT22;14583;43.604;1.364;2023-09-07T05:55:52;22.00;81.90
26408;DHT22;14583;43.604;1.364;2023-09-07T05:58:18;22.20;82.30
26408;DHT22;14583;43.604;1.364;2023-09-07T06:00:44;22.20;81.70
26408;DHT22;14583;43.604;1.364;2023-09-07T06:03:10;22.30;82.00
26408;DHT22;14583;43.604;1.364;2023-09-07T06:05:37;22.40;81.90
26408;DHT22;14583;43.604;1.364;2023-09-07T06:08:04;22.30;81.70
26408;DHT22;14583;43.604;1.364;2023-09-07T06:10:31;22.30;81.90
26408;DHT22;14583;43.604;1.364;2023-09-07T06:12:57;22.40;82.00
26408;DHT22;14583;43.604;1.364;2023-09-07T06:15:23;22.30;81.60
26408;DHT22;14583;43.604;1.364;2023-09-07T06:17:49;22.40;81.90
26408;DHT22;14583;43.604;1.364;2023-09-07T06:20:15;22.40;82.00
26408;DHT22;14583;43.604;1.364;2023-09-07T06:22:41;22.40;81.60
26408;DHT22;14583;43.604;1.364;2023-09-07T06:25:07;22.50;81.90
26408;DHT22;14583;43.604;1.364;2023-09-07T06:27:33;22.60;81.50
26408;DHT22;14583;43.604;1.364;2023-09-07T06:29:58;22.60;81.60
26408;DHT22;14583;43.604;1.364;2023-09-07T06:32:24;22.70;81.80
26408;DHT22;14583;43.604;1.364;2023-09-07T06:34:50;22.70;81.50
26408;DHT22;14583;43.604;1.364;2023-09-07T06:37:17;22.70;82.00
26408;DHT22;14583;43.604;1.364;2023-09-07T06:39:43;22.70;81.00
26408;DHT22;14583;43.604;1.364;2023-09-07T06:42:09;22.70;81.80
26408;DHT22;14583;43.604;1.364;2023-09-07T06:44:35;22.80;81.90
26408;DHT22;14583;43.604;1.364;2023-09-07T06:47:01;22.80;81.60
26408;DHT22;14583;43.604;1.364;2023-09-07T06:49:27;22.80;82.30
26408;DHT22;14583;43.604;1.364;2023-09-07T06:51:58;22.80;81.00
26408;DHT22;14583;43.604;1.364;2023-09-07T06:54:23;22.90;81.20
26408;DHT22;14583;43.604;1.364;2023-09-07T06:56:49;22.90;80.80
26408;DHT22;14583;43.604;1.364;2023-09-07T06:59:15;23.10;80.50
26408;DHT22;14583;43.604;1.364;2023-09-07T07:01:41;23.10;80.70
26408;DHT22;14583;43.604;1.364;2023-09-07T07:04:06;23.10;80.70
26408;DHT22;14583;43.604;1.364;2023-09-07T07:06:33;23.00;79.40
26408;DHT22;14583;43.604;1.364;2023-09-07T07:08:58;23.10;79.60
26408;DHT22;14583;43.604;1.364;2023-09-07T07:11:24;23.10;79.20
26408;DHT22;14583;43.604;1.364;2023-09-07T07:13:50;23.20;80.60
26408;DHT22;14583;43.604;1.364;2023-09-07T07:16:16;23.20;80.00
26408;DHT22;14583;43.604;1.364;2023-09-07T07:18:42;23.10;80.40
26408;DHT22;14583;43.604;1.364;2023-09-07T07:21:08;23.20;80.20
26408;DHT22;14583;43.604;1.364;2023-09-07T07:23:34;23.30;79.90
26408;DHT22;14583;43.604;1.364;2023-09-07T07:26:00;23.30;79.60
26408;DHT22;14583;43.604;1.364;2023-09-07T07:28:26;23.40;80.60
26408;DHT22;14583;43.604;1.364;2023-09-07T07:30:51;23.60;80.30
26408;DHT22;14583;43.604;1.364;2023-09-07T07:33:19;23.70;80.10
26408;DHT22;14583;43.604;1.364;2023-09-07T07:35:45;23.60;79.90
26408;DHT22;14583;43.604;1.364;2023-09-07T07:38:12;23.50;79.50
26408;DHT22;14583;43.604;1.364;2023-09-07T07:40:39;23.70;80.20
26408;DHT22;14583;43.604;1.364;2023-09-07T07:43:05;23.70;80.20
26408;DHT22;14583;43.604;1.364;2023-09-07T07:45:31;23.80;80.00
26408;DHT22;14583;43.604;1.364;2023-09-07T07:48:01;23.80;79.60
26408;DHT22;14583;43.604;1.364;2023-09-07T07:50:27;23.90;79.50
26408;DHT22;14583;43.604;1.364;2023-09-07T07:52:53;24.00;79.50
26408;DHT22;14583;43.604;1.364;2023-09-07T07:55:18;24.00;79.70
26408;DHT22;14583;43.604;1.364;2023-09-07T07:57:44;24.10;79.20
26408;DHT22;14583;43.604;1.364;2023-09-07T08:00:10;24.20;79.30
26408;DHT22;14583;43.604;1.364;2023-09-07T08:02:36;24.10;79.10
26408;DHT22;14583;43.604;1.364;2023-09-07T08:05:01;24.20;80.00
26408;DHT22;14583;43.604;1.364;2023-09-07T08:07:27;24.30;79.30
26408;DHT22;14583;43.604;1.364;2023-09-07T08:09:53;24.40;78.90
26408;DHT22;14583;43.604;1.364;2023-09-07T08:12:19;24.20;79.10
26408;DHT22;14583;43.604;1.364;2023-09-07T08:14:44;24.20;78.60
26408;DHT22;14583;43.604;1.364;2023-09-07T08:17:10;24.30;79.60
26408;DHT22;14583;43.604;1.364;2023-09-07T08:19:36;24.40;79.90
26408;DHT22;14583;43.604;1.364;2023-09-07T08:22:04;24.60;78.60
26408;DHT22;14583;43.604;1.364;2023-09-07T08:24:30;24.50;78.20
26408;DHT22;14583;43.604;1.364;2023-09-07T08:26:56;24.60;79.40
26408;DHT22;14583;43.604;1.364;2023-09-07T08:29:23;24.60;79.30
26408;DHT22;14583;43.604;1.364;2023-09-07T08:31:52;24.70;78.30
26408;DHT22;14583;43.604;1.364;2023-09-07T08:34:18;24.80;77.50
26408;DHT22;14583;43.604;1.364;2023-09-07T08:36:46;24.90;78.20
26408;DHT22;14583;43.604;1.364;2023-09-07T08:39:12;24.90;77.00
26408;DHT22;14583;43.604;1.364;2023-09-07T08:41:42;24.80;77.90
26408;DHT22;14583;43.604;1.364;2023-09-07T08:44:15;25.00;78.00
26408;DHT22;14583;43.604;1.364;2023-09-07T08:46:41;25.00;77.50
26408;DHT22;14583;43.604;1.364;2023-09-07T08:49:08;25.10;76.50
26408;DHT22;14583;43.604;1.364;2023-09-07T08:51:35;25.20;77.40
26408;DHT22;14583;43.604;1.364;2023-09-07T08:54:07;25.30;77.70
26408;DHT22;14583;43.604;1.364;2023-09-07T08:56:33;25.30;76.80
26408;DHT22;14583;43.604;1.364;2023-09-07T08:59:02;25.20;76.60
26408;DHT22;14583;43.604;1.364;2023-09-07T09:01:30;25.20;77.00
26408;DHT22;14583;43.604;1.364;2023-09-07T09:03:57;25.20;76.30
26408;DHT22;14583;43.604;1.364;2023-09-07T09:06:23;25.20;76.80
26408;DHT22;14583;43.604;1.364;2023-09-07T09:08:53;25.30;76.20
26408;DHT22;14583;43.604;1.364;2023-09-07T09:11:19;25.40;75.90
26408;DHT22;14583;43.604;1.364;2023-09-07T09:13:46;25.60;76.60
26408;DHT22;14583;43.604;1.364;2023-09-07T09:16:13;25.70;75.70
26408;DHT22;14583;43.604;1.364;2023-09-07T09:18:51;25.70;75.70
26408;DHT22;14583;43.604;1.364;2023-09-07T09:21:22;25.80;76.30
26408;DHT22;14583;43.604;1.364;2023-09-07T09:23:57;25.90;75.70
26408;DHT22;14583;43.604;1.364;2023-09-07T09:26:23;26.00;75.60
26408;DHT22;14583;43.604;1.364;2023-09-07T09:28:49;26.10;75.30
26408;DHT22;14583;43.604;1.364;2023-09-07T09:31:18;26.10;74.90
26408;DHT22;14583;43.604;1.364;2023-09-07T09:33:48;26.10;74.90
26408;DHT22;14583;43.604;1.364;2023-09-07T09:36:17;26.30;75.40
26408;DHT22;14583;43.604;1.364;2023-09-07T09:38:49;26.50;75.10
26408;DHT22;14583;43.604;1.364;2023-09-07T09:41:16;26.50;74.80
26408;DHT22;14583;43.604;1.364;2023-09-07T09:43:42;26.50;74.00
26408;DHT22;14583;43.604;1.364;2023-09-07T09:46:16;26.60;74.10
26408;DHT22;14583;43.604;1.364;2023-09-07T09:48:42;26.50;75.00
26408;DHT22;14583;43.604;1.364;2023-09-07T09:51:16;26.60;74.60
26408;DHT22;14583;43.604;1.364;2023-09-07T09:53:44;26.70;75.20
26408;DHT22;14583;43.604;1.364;2023-09-07T09:56:10;26.70;75.20
26408;DHT22;14583;43.604;1.364;2023-09-07T09:58:36;26.70;75.10
26408;DHT22;14583;43.604;1.364;2023-09-07T10:01:05;26.90;74.70
26408;DHT22;14583;43.604;1.364;2023-09-07T10:03:34;27.00;74.30
26408;DHT22;14583;43.604;1.364;2023-09-07T10:06:17;27.00;73.90
26408;DHT22;14583;43.604;1.364;2023-09-07T10:09:05;27.00;73.90
26408;DHT22;14583;43.604;1.364;2023-09-07T10:11:36;27.00;74.60
26408;DHT22;14583;43.604;1.364;2023-09-07T10:14:06;27.10;75.10
26408;DHT22;14583;43.604;1.364;2023-09-07T10:16:46;27.20;75.00
26408;DHT22;14583;43.604;1.364;2023-09-07T10:21:44;27.40;76.30
26408;DHT22;14583;43.604;1.364;2023-09-07T10:24:10;27.50;75.50
26408;DHT22;14583;43.604;1.364;2023-09-07T10:26:36;27.60;75.40
26408;DHT22;14583;43.604;1.364;2023-09-07T10:29:02;27.60;75.20
26408;DHT22;14583;43.604;1.364;2023-09-07T10:31:34;27.60;75.70
26408;DHT22;14583;43.604;1.364;2023-09-07T10:34:12;27.60;75.10
26408;DHT22;14583;43.604;1.364;2023-09-07T10:36:38;27.60;75.50
26408;DHT22;14583;43.604;1.364;2023-09-07T10:39:05;27.60;75.70
26408;DHT22;14583;43.604;1.364;2023-09-07T10:41:45;27.70;75.60
26408;DHT22;14583;43.604;1.364;2023-09-07T10:44:11;27.80;76.30
26408;DHT22;14583;43.604;1.364;2023-09-07T10:46:38;27.90;75.70
26408;DHT22;14583;43.604;1.364;2023-09-07T10:49:08;28.00;75.10
26408;DHT22;14583;43.604;1.364;2023-09-07T10:51:44;28.00;76.10
26408;DHT22;14583;43.604;1.364;2023-09-07T10:54:17;28.20;75.90
26408;DHT22;14583;43.604;1.364;2023-09-07T10:56:46;28.20;75.10
26408;DHT22;14583;43.604;1.364;2023-09-07T10:59:13;28.50;75.40
26408;DHT22;14583;43.604;1.364;2023-09-07T11:01:39;28.40;74.80
26408;DHT22;14583;43.604;1.364;2023-09-07T11:04:05;28.30;74.70
26408;DHT22;14583;43.604;1.364;2023-09-07T11:06:33;28.30;75.80
26408;DHT22;14583;43.604;1.364;2023-09-07T11:09:11;28.40;75.30
26408;DHT22;14583;43.604;1.364;2023-09-07T11:11:37;28.40;75.50
26408;DHT22;14583;43.604;1.364;2023-09-07T11:14:06;28.40;75.90
26408;DHT22;14583;43.604;1.364;2023-09-07T11:16:35;28.40;75.70
26408;DHT22;14583;43.604;1.364;2023-09-07T11:19:04;28.50;74.40
26408;DHT22;14583;43.604;1.364;2023-09-07T11:21:30;28.50;74.70
26408;DHT22;14583;43.604;1.364;2023-09-07T11:23:58;28.60;75.40
26408;DHT22;14583;43.604;1.364;2023-09-07T11:26:23;28.80;75.30
26408;DHT22;14583;43.604;1.364;2023-09-07T11:28:49;29.00;74.00
26408;DHT22;14583;43.604;1.364;2023-09-07T11:31:18;29.00;74.50
26408;DHT22;14583;43.604;1.364;2023-09-07T11:33:46;29.20;74.50
26408;DHT22;14583;43.604;1.364;2023-09-07T11:36:12;29.20;76.20
26408;DHT22;14583;43.604;1.364;2023-09-07T11:38:38;29.10;75.50
26408;DHT22;14583;43.604;1.364;2023-09-07T11:41:07;29.00;75.50
26408;DHT22;14583;43.604;1.364;2023-09-07T11:43:33;28.90;74.70
26408;DHT22;14583;43.604;1.364;2023-09-07T11:45:59;29.00;75.40
26408;DHT22;14583;43.604;1.364;2023-09-07T11:48:26;29.00;75.60
26408;DHT22;14583;43.604;1.364;2023-09-07T11:50:52;29.30;74.60
26408;DHT22;14583;43.604;1.364;2023-09-07T11:53:17;29.50;75.20
26408;DHT22;14583;43.604;1.364;2023-09-07T11:55:43;29.40;74.20
26408;DHT22;14583;43.604;1.364;2023-09-07T11:58:09;29.30;74.60
26408;DHT22;14583;43.604;1.364;2023-09-07T12:00:34;29.50;74.10
26408;DHT22;14583;43.604;1.364;2023-09-07T12:03:00;29.50;73.20
26408;DHT22;14583;43.604;1.364;2023-09-07T12:05:26;29.60;73.50
26408;DHT22;14583;43.604;1.364;2023-09-07T12:07:52;29.70;73.60
26408;DHT22;14583;43.604;1.364;2023-09-07T12:10:18;29.70;73.30
26408;DHT22;14583;43.604;1.364;2023-09-07T12:12:44;29.70;75.10
26408;DHT22;14583;43.604;1.364;2023-09-07T12:15:17;29.70;73.70
26408;DHT22;14583;43.604;1.364;2023-09-07T12:17:43;29.80;75.50
26408;DHT22;14583;43.604;1.364;2023-09-07T12:20:17;29.80;74.40
26408;DHT22;14583;43.604;1.364;2023-09-07T12:22:43;29.90;74.10
26408;DHT22;14583;43.604;1.364;2023-09-07T12:25:09;30.00;75.40
26408;DHT22;14583;43.604;1.364;2023-09-07T12:27:36;29.90;73.40
26408;DHT22;14583;43.604;1.364;2023-09-07T12:30:02;30.00;72.90
26408;DHT22;14583;43.604;1.364;2023-09-07T12:32:32;29.90;74.90
26408;DHT22;14583;43.604;1.364;2023-09-07T12:34:58;30.00;75.20
26408;DHT22;14583;43.604;1.364;2023-09-07T12:37:24;30.10;74.50
26408;DHT22;14583;43.604;1.364;2023-09-07T12:39:51;30.10;75.10
26408;DHT22;14583;43.604;1.364;2023-09-07T12:42:17;29.90;75.20
26408;DHT22;14583;43.604;1.364;2023-09-07T12:44:43;29.90;73.70
26408;DHT22;14583;43.604;1.364;2023-09-07T12:47:09;30.00;73.00
26408;DHT22;14583;43.604;1.364;2023-09-07T12:49:34;30.20;72.80
26408;DHT22;14583;43.604;1.364;2023-09-07T12:52:00;30.20;72.00
26408;DHT22;14583;43.604;1.364;2023-09-07T12:54:27;30.20;73.30
26408;DHT22;14583;43.604;1.364;2023-09-07T12:56:53;30.40;74.10
26408;DHT22;14583;43.604;1.364;2023-09-07T12:59:19;30.60;72.90
26408;DHT22;14583;43.604;1.364;2023-09-07T13:01:48;30.60;72.10
26408;DHT22;14583;43.604;1.364;2023-09-07T13:04:13;30.60;72.30
26408;DHT22;14583;43.604;1.364;2023-09-07T13:06:39;30.50;72.80
26408;DHT22;14583;43.604;1.364;2023-09-07T13:09:08;30.70;72.60
26408;DHT22;14583;43.604;1.364;2023-09-07T13:11:35;30.90;71.70
26408;DHT22;14583;43.604;1.364;2023-09-07T13:14:00;30.90;71.20
26408;DHT22;14583;43.604;1.364;2023-09-07T13:16:26;31.10;70.30
26408;DHT22;14583;43.604;1.364;2023-09-07T13:18:52;31.30;71.00
26408;DHT22;14583;43.604;1.364;2023-09-07T13:21:17;31.30;69.00
26408;DHT22;14583;43.604;1.364;2023-09-07T13:23:43;31.30;70.70
26408;DHT22;14583;43.604;1.364;2023-09-07T13:26:09;31.50;69.40
26408;DHT22;14583;43.604;1.364;2023-09-07T13:28:34;31.60;68.30
26408;DHT22;14583;43.604;1.364;2023-09-07T13:31:00;31.60;70.80
26408;DHT22;14583;43.604;1.364;2023-09-07T13:33:26;31.60;67.80
26408;DHT22;14583;43.604;1.364;2023-09-07T13:35:51;31.70;67.80
26408;DHT22;14583;43.604;1.364;2023-09-07T13:38:17;31.90;69.30
26408;DHT22;14583;43.604;1.364;2023-09-07T13:40:42;31.90;68.90
26408;DHT22;14583;43.604;1.364;2023-09-07T13:43:08;31.90;68.60
26408;DHT22;14583;43.604;1.364;2023-09-07T13:45:34;31.90;69.30
26408;DHT22;14583;43.604;1.364;2023-09-07T13:48:00;31.90;68.30
26408;DHT22;14583;43.604;1.364;2023-09-07T13:50:27;32.00;69.30
26408;DHT22;14583;43.604;1.364;2023-09-07T13:52:55;32.10;69.20
26408;DHT22;14583;43.604;1.364;2023-09-07T13:55:21;32.00;69.00
26408;DHT22;14583;43.604;1.364;2023-09-07T13:57:47;32.00;68.70
26408;DHT22;14583;43.604;1.364;2023-09-07T14:00:15;31.90;68.30
26408;DHT22;14583;43.604;1.364;2023-09-07T14:02:41;31.90;67.50
26408;DHT22;14583;43.604;1.364;2023-09-07T14:05:07;31.90;68.20
26408;DHT22;14583;43.604;1.364;2023-09-07T14:07:33;32.20;67.70
26408;DHT22;14583;43.604;1.364;2023-09-07T14:09:59;32.20;67.50
26408;DHT22;14583;43.604;1.364;2023-09-07T14:12:26;32.30;65.20
26408;DHT22;14583;43.604;1.364;2023-09-07T14:14:52;32.40;66.30
26408;DHT22;14583;43.604;1.364;2023-09-07T14:17:18;32.50;65.70
26408;DHT22;14583;43.604;1.364;2023-09-07T14:19:44;32.50;66.80
26408;DHT22;14583;43.604;1.364;2023-09-07T14:22:11;32.60;66.50
26408;DHT22;14583;43.604;1.364;2023-09-07T14:24:37;32.70;63.60
26408;DHT22;14583;43.604;1.364;2023-09-07T14:27:03;32.60;62.90
26408;DHT22;14583;43.604;1.364;2023-09-07T14:29:29;32.60;62.50
26408;DHT22;14583;43.604;1.364;2023-09-07T14:31:55;32.70;63.80
26408;DHT22;14583;43.604;1.364;2023-09-07T14:34:20;32.90;63.40
26408;DHT22;14583;43.604;1.364;2023-09-07T14:36:46;32.90;62.20
26408;DHT22;14583;43.604;1.364;2023-09-07T14:39:12;33.00;64.00
26408;DHT22;14583;43.604;1.364;2023-09-07T14:41:38;33.20;62.40
26408;DHT22;14583;43.604;1.364;2023-09-07T14:44:05;33.20;62.20
26408;DHT22;14583;43.604;1.364;2023-09-07T14:46:31;33.20;62.50
26408;DHT22;14583;43.604;1.364;2023-09-07T14:48:57;33.20;62.60
26408;DHT22;14583;43.604;1.364;2023-09-07T14:51:23;33.30;61.60
26408;DHT22;14583;43.604;1.364;2023-09-07T14:53:49;33.20;61.00
26408;DHT22;14583;43.604;1.364;2023-09-07T14:56:14;33.40;61.90
26408;DHT22;14583;43.604;1.364;2023-09-07T14:58:40;33.40;60.90
26408;DHT22;14583;43.604;1.364;2023-09-07T15:01:06;33.40;59.50
26408;DHT22;14583;43.604;1.364;2023-09-07T15:03:32;33.50;60.80
26408;DHT22;14583;43.604;1.364;2023-09-07T15:05:58;33.60;59.70
26408;DHT22;14583;43.604;1.364;2023-09-07T15:08:24;33.40;59.50
26408;DHT22;14583;43.604;1.364;2023-09-07T15:10:50;33.50;59.90
26408;DHT22;14583;43.604;1.364;2023-09-07T15:13:16;33.60;59.50
26408;DHT22;14583;43.604;1.364;2023-09-07T15:15:42;33.60;58.90
26408;DHT22;14583;43.604;1.364;2023-09-07T15:18:08;33.60;58.40
26408;DHT22;14583;43.604;1.364;2023-09-07T15:20:34;33.70;57.90
26408;DHT22;14583;43.604;1.364;2023-09-07T15:23:00;33.80;59.00
26408;DHT22;14583;43.604;1.364;2023-09-07T15:25:25;34.00;59.00
26408;DHT22;14583;43.604;1.364;2023-09-07T15:27:54;34.30;58.90
26408;DHT22;14583;43.604;1.364;2023-09-07T15:30:20;34.60;58.50
26408;DHT22;14583;43.604;1.364;2023-09-07T15:32:45;34.90;58.90